Time;durP1;ratioP1;P1;durP2;ratioP2;P2;SDS_P1;SDS_P2;PMS_P1;PMS_P2;Temp;Humidity;BMP_temperature;BMP_pressure;BME280_temperature;BME280_humidity;BME280_pressure;Samples;Min_cycle;Max_cycle;Signal;HPM_P1;HPM_P2
2023/06/12 00:00:41;;;;;;;5.38;3.90;;;;;;;-146.27;35.72;79600.94;5026524;28;20040;-69
2023/06/12 00:03:07;;;;;;;4.88;4.32;;;;;;;-146.27;35.37;79562.81;5024484;28;20029;-69
2023/06/12 00:05:32;;;;;;;8.55;4.68;;;;;;;-146.27;35.72;79582.88;5028500;28;20033;-70
2023/06/12 00:07:58;;;;;;;8.18;4.45;;;;;;;-146.27;35.48;79592.91;5028097;28;20148;-69
2023/06/12 00:10:24;;;;;;;8.57;4.40;;;;;;;-146.27;35.51;79596.94;5022386;28;20144;-69
2023/06/12 00:12:50;;;;;;;5.78;4.00;;;;;;;-146.27;35.40;79556.78;5022417;28;20546;-69
2023/06/12 00:15:15;;;;;;;7.57;4.32;;;;;;;-146.27;35.83;79594.94;5022537;28;20037;-69
2023/06/12 00:17:41;;;;;;;6.40;4.13;;;;;;;-146.27;35.53;79604.97;5022137;28;20353;-70
2023/06/12 00:20:07;;;;;;;5.55;4.10;;;;;;;-146.27;35.61;79625.03;5030313;28;20397;-69
2023/06/12 00:22:39;;;;;;;10.35;4.38;;;;;;;-146.27;36.10;79669.22;5023596;28;20033;-69
2023/06/12 00:25:08;;;;;;;6.90;4.07;;;;;;;-146.27;35.53;79705.34;5021638;28;20033;-69
2023/06/12 00:27:33;;;;;;;7.47;4.28;;;;;;;-146.27;36.16;79719.38;5022339;28;20025;-69
2023/06/12 00:29:58;;;;;;;6.15;4.45;;;;;;;-146.27;35.56;79701.31;5020777;28;20500;-69
2023/06/12 00:32:24;;;;;;;9.40;4.03;;;;;;;-146.27;35.58;79741.47;5029765;28;20033;-68
2023/06/12 00:34:50;;;;;;;9.77;4.20;;;;;;;-146.27;35.69;79755.53;5022172;28;20522;-69
2023/06/12 00:37:17;;;;;;;6.57;3.63;;;;;;;-146.27;36.06;79765.56;5029459;28;20026;-69
2023/06/12 00:39:43;;;;;;;8.18;3.92;;;;;;;-146.27;35.59;79747.50;5023823;28;20032;-69
2023/06/12 00:42:08;;;;;;;7.90;3.95;;;;;;;-146.27;35.79;79761.53;5022369;28;20128;-69
2023/06/12 00:44:33;;;;;;;5.10;3.88;;;;;;;-146.27;35.88;79789.66;5019962;28;20136;-69
2023/06/12 00:46:59;;;;;;;6.10;3.58;;;;;;;-146.27;36.75;79803.69;5029063;28;20075;-68
2023/06/12 00:49:24;;;;;;;5.68;3.60;;;;;;;-146.27;36.22;79801.69;5023901;28;20037;-69
2023/06/12 00:51:52;;;;;;;4.90;3.78;;;;;;;-146.27;36.42;79797.69;5022953;28;20029;-69
2023/06/12 00:54:17;;;;;;;5.32;4.03;;;;;;;-146.27;36.19;79815.75;5024967;28;20031;-69
2023/06/12 00:56:43;;;;;;;10.43;3.67;;;;;;;-146.27;36.96;79884.00;5031175;28;20603;-68
2023/06/12 00:59:09;;;;;;;7.15;4.10;;;;;;;-146.27;36.62;79877.97;5030108;28;20029;-68
2023/06/12 01:01:36;;;;;;;5.68;3.85;;;;;;;-146.27;36.10;79851.88;5029375;28;20544;-69
2023/06/12 01:04:01;;;;;;;5.43;4.13;;;;;;;-146.27;36.30;79871.97;5024181;28;20124;-69
2023/06/12 01:06:38;;;;;;;7.88;3.50;;;;;;;-146.27;36.22;79910.09;5018726;28;20035;-69
2023/06/12 01:09:25;;;;;;;12.15;4.18;;;;;;;-146.27;36.65;79902.06;5021344;28;20025;-69
2023/06/12 01:11:52;;;;;;;5.82;3.95;;;;;;;-146.27;36.46;79851.88;5022558;28;20025;-69
2023/06/12 01:14:18;;;;;;;4.82;3.63;;;;;;;-146.27;36.13;79914.13;5026061;28;20477;-69
2023/06/12 01:16:45;;;;;;;10.30;4.00;;;;;;;-146.27;35.97;79898.06;5020364;28;20033;-69
2023/06/12 01:19:12;;;;;;;5.10;4.07;;;;;;;-146.27;36.37;79894.03;5025283;28;20021;-69
2023/06/12 01:21:40;;;;;;;5.70;3.92;;;;;;;-146.27;35.86;79898.06;5026243;28;20370;-69
2023/06/12 01:24:08;;;;;;;3.75;3.22;;;;;;;-146.27;35.91;79873.97;5021236;28;20701;-69
2023/06/12 01:26:52;;;;;;;6.38;4.03;;;;;;;-146.27;36.28;79833.81;5025331;28;20033;-69
2023/06/12 01:30:25;;;;;;;4.55;3.38;;;;;;;-146.27;36.07;79855.91;5021785;28;20028;-68
2023/06/12 01:32:51;;;;;;;7.35;4.25;;;;;;;-146.27;36.38;79886.00;4948896;28;20669;-69
2023/06/12 01:35:23;;;;;;;7.32;3.78;;;;;;;-146.27;36.08;79908.09;4952514;28;20168;-69
2023/06/12 01:37:59;;;;;;;4.43;3.58;;;;;;;-146.27;36.38;79902.06;4984949;28;20045;-69
2023/06/12 01:40:26;;;;;;;6.78;3.90;;;;;;;-146.27;35.99;79894.03;5029618;28;20495;-69
2023/06/12 01:42:52;;;;;;;6.95;4.10;;;;;;;-146.27;36.08;79867.94;5019112;28;20099;-69
2023/06/12 01:45:17;;;;;;;6.57;3.85;;;;;;;-146.27;36.12;79896.06;5026405;28;20029;-69
2023/06/12 01:47:42;;;;;;;5.85;4.10;;;;;;;-146.27;36.45;79964.31;5027278;28;20544;-69
2023/06/12 01:50:08;;;;;;;5.28;3.83;;;;;;;-146.27;37.58;79934.19;5020201;28;20308;-69
2023/06/12 01:52:34;;;;;;;5.90;4.00;;;;;;;-146.27;36.88;79928.16;5020915;28;20037;-69
2023/06/12 01:55:00;;;;;;;9.90;4.55;;;;;;;-146.27;36.59;79974.34;5020985;28;20112;-69
2023/06/12 01:57:27;;;;;;;7.78;4.03;;;;;;;-146.27;36.65;80018.50;5029769;28;20478;-69
2023/06/12 01:59:54;;;;;;;4.95;3.75;;;;;;;-146.27;36.96;80062.69;5028296;28;20087;-68
2023/06/12 02:02:20;;;;;;;4.35;3.50;;;;;;;-146.27;37.25;80010.47;5023433;28;20025;-69
2023/06/12 02:04:46;;;;;;;4.00;3.60;;;;;;;-146.27;37.64;80024.53;5021138;28;20075;-68
2023/06/12 02:07:11;;;;;;;4.68;3.60;;;;;;;-146.27;37.90;80038.59;5022242;28;20056;-69
2023/06/12 02:09:37;;;;;;;7.25;4.22;;;;;;;-146.27;37.49;80050.63;5025722;28;20488;-68
2023/06/12 02:12:02;;;;;;;4.90;4.03;;;;;;;-146.27;37.24;80094.81;5023430;28;20068;-69
2023/06/12 02:14:28;;;;;;;7.07;4.07;;;;;;;-146.27;36.97;80098.81;5023103;28;20064;-68
2023/06/12 02:16:53;;;;;;;7.40;3.80;;;;;;;-146.27;37.31;80114.88;5032838;28;20017;-68
2023/06/12 02:19:25;;;;;;;6.65;4.05;;;;;;;-146.27;37.13;80147.00;5025649;28;20435;-69
2023/06/12 02:21:53;;;;;;;8.63;3.97;;;;;;;-146.27;37.10;80138.97;5023891;28;20033;-68
2023/06/12 02:24:19;;;;;;;6.93;3.70;;;;;;;-146.27;37.49;80155.03;5027342;28;20497;-69
2023/06/12 02:26:45;;;;;;;6.28;3.90;;;;;;;-146.27;37.40;80175.13;5026951;28;20029;-69
2023/06/12 02:29:14;;;;;;;9.77;4.57;;;;;;;-146.27;37.59;80155.03;5027232;28;20466;-69
2023/06/12 02:31:39;;;;;;;4.88;4.30;;;;;;;-146.27;37.60;80211.25;5025580;28;20036;-69
2023/06/12 02:34:05;;;;;;;6.30;3.90;;;;;;;-146.27;38.12;80167.09;5018733;28;20037;-69
2023/06/12 02:36:31;;;;;;;8.60;4.65;;;;;;;-146.27;37.83;80235.34;5028363;28;20166;-69
2023/06/12 02:38:57;;;;;;;9.88;4.10;;;;;;;-146.27;37.71;80209.25;5021718;28;20029;-69
2023/06/12 02:41:23;;;;;;;5.20;3.78;;;;;;;-146.27;38.21;80251.41;5028470;28;20068;-68
2023/06/12 02:43:48;;;;;;;5.00;3.85;;;;;;;-146.27;38.35;80279.50;5019968;28;20064;-69
2023/06/12 02:46:14;;;;;;;8.85;4.00;;;;;;;-146.27;38.63;80245.38;5020079;28;20497;-69
2023/06/12 02:48:39;;;;;;;8.00;3.80;;;;;;;-146.27;38.40;80295.56;5020188;28;20026;-69
2023/06/12 02:51:04;;;;;;;8.15;4.50;;;;;;;-146.27;38.66;80303.59;5022530;28;20033;-69
2023/06/12 02:53:31;;;;;;;6.20;4.22;;;;;;;-146.27;38.65;80325.69;5022159;28;20047;-69
2023/06/12 02:55:56;;;;;;;6.18;4.20;;;;;;;-146.27;39.01;80343.75;5020489;28;20038;-69
2023/06/12 02:58:22;;;;;;;5.78;3.90;;;;;;;-146.27;39.05;80412.03;5020379;28;20032;-69
2023/06/12 03:00:47;;;;;;;5.90;3.80;;;;;;;-146.27;39.62;80393.97;5026957;28;20022;-69
2023/06/12 03:03:13;;;;;;;8.00;3.85;;;;;;;-146.27;39.18;80436.13;5028138;28;20033;-69
2023/06/12 03:05:38;;;;;;;6.78;4.30;;;;;;;-146.27;39.68;80436.13;5018510;28;20022;-69
2023/06/12 03:08:04;;;;;;;4.82;3.50;;;;;;;-146.27;39.90;80432.09;5021744;28;20043;-69
2023/06/12 03:10:30;;;;;;;8.05;3.85;;;;;;;-146.27;39.82;80478.28;5023545;28;20053;-69
2023/06/12 03:12:55;;;;;;;7.30;4.13;;;;;;;-146.27;40.65;80490.34;5022739;28;20029;-69
2023/06/12 03:15:21;;;;;;;5.88;3.80;;;;;;;-146.27;40.26;80560.59;5022942;28;20032;-69
2023/06/12 03:17:47;;;;;;;5.32;4.53;;;;;;;-146.27;40.45;80576.66;5025106;28;20026;-69
2023/06/12 03:20:14;;;;;;;9.18;4.43;;;;;;;-146.27;40.93;80606.78;5021879;28;20401;-69
2023/06/12 03:22:39;;;;;;;5.32;4.03;;;;;;;-146.27;41.03;80588.72;5026006;28;20029;-69
2023/06/12 03:25:05;;;;;;;6.78;4.30;;;;;;;-146.27;41.53;80628.88;5022901;28;20724;-70
2023/06/12 03:27:31;;;;;;;7.20;4.55;;;;;;;-146.27;41.75;80659.00;5029885;28;20029;-68
2023/06/12 03:29:56;;;;;;;8.02;4.18;;;;;;;-146.27;41.25;80685.09;5030486;28;20482;-68
2023/06/12 03:32:22;;;;;;;6.40;4.38;;;;;;;-146.27;41.85;80713.22;5026311;28;20025;-67
2023/06/12 03:34:47;;;;;;;5.63;4.40;;;;;;;-146.27;42.28;80709.19;5031582;28;20037;-68
2023/06/12 03:37:13;;;;;;;6.68;4.63;;;;;;;-146.27;42.47;80749.34;5031681;28;20511;-68
2023/06/12 03:39:38;;;;;;;5.00;4.13;;;;;;;-146.27;42.60;80745.34;5030231;28;20036;-68
2023/06/12 03:42:04;;;;;;;10.82;4.50;;;;;;;-146.27;41.74;80701.16;5031194;28;20469;-69
2023/06/12 03:44:30;;;;;;;7.15;4.57;;;;;;;-146.27;41.63;80751.38;5024308;28;20060;-68
2023/06/12 03:46:55;;;;;;;9.00;4.32;;;;;;;-146.27;41.79;80761.41;5016063;28;20100;-68
2023/06/12 03:49:21;;;;;;;7.68;4.28;;;;;;;-146.27;41.98;80737.31;5022475;28;20025;-68
2023/06/12 03:51:46;;;;;;;4.82;4.10;;;;;;;-146.27;42.27;80753.38;5014993;28;20584;-68
2023/06/12 03:54:12;;;;;;;7.68;4.28;;;;;;;-146.27;41.90;80785.50;5028159;28;20048;-68
2023/06/12 03:56:37;;;;;;;9.43;4.63;;;;;;;-146.27;41.87;80789.50;5026652;28;20021;-68
2023/06/12 03:59:02;;;;;;;5.30;4.68;;;;;;;-146.27;42.04;80771.44;5023546;28;20104;-68
2023/06/12 04:01:28;;;;;;;6.55;4.20;;;;;;;-146.27;42.30;80749.34;5015894;28;20358;-68
2023/06/12 04:03:53;;;;;;;11.82;4.60;;;;;;;-146.27;42.43;80755.38;5020024;28;20485;-68
2023/06/12 04:06:22;;;;;;;11.57;4.28;;;;;;;-146.27;42.47;80745.34;5023341;28;20035;-68
2023/06/12 04:08:48;;;;;;;5.75;4.28;;;;;;;-146.27;42.30;80781.47;5022691;28;20465;-68
2023/06/12 04:11:14;;;;;;;13.00;4.70;;;;;;;-146.27;42.71;80761.41;5027080;28;20064;-68
2023/06/12 04:13:41;;;;;;;9.60;4.20;;;;;;;-146.27;43.02;80735.31;5020487;28;20375;-68
2023/06/12 04:16:07;;;;;;;8.68;4.30;;;;;;;-146.27;43.56;80781.47;5022134;28;20041;-68
2023/06/12 04:18:33;;;;;;;8.95;4.63;;;;;;;-146.27;43.17;80787.50;5027319;28;20033;-68
2023/06/12 04:21:00;;;;;;;8.63;4.28;;;;;;;-146.27;43.32;80773.44;5039620;28;20025;-68
2023/06/12 04:23:29;;;;;;;7.57;4.28;;;;;;;-146.27;43.58;80793.53;5026279;28;20037;-68
2023/06/12 04:26:07;;;;;;;5.80;4.32;;;;;;;-146.27;43.76;80793.53;5025996;28;20481;-68
2023/06/12 04:28:33;;;;;;;8.52;4.47;;;;;;;-146.27;43.40;80783.50;5021157;28;20496;-68
2023/06/12 04:30:59;;;;;;;7.35;4.53;;;;;;;-146.27;43.52;80769.44;5027469;28;20025;-68
2023/06/12 04:33:30;;;;;;;5.15;4.15;;;;;;;-146.27;43.35;80749.34;5029167;28;20072;-68
2023/06/12 04:35:57;;;;;;;6.72;3.95;;;;;;;-146.27;43.89;80789.50;5030514;28;20422;-68
2023/06/12 04:38:25;;;;;;;6.35;4.03;;;;;;;-146.27;43.01;80753.38;5027487;28;20481;-68
2023/06/12 04:40:52;;;;;;;6.22;4.22;;;;;;;-146.27;43.12;80715.22;5029829;28;20037;-68
2023/06/12 04:43:19;;;;;;;7.05;4.10;;;;;;;-146.27;43.63;80721.25;5030845;28;20044;-70
2023/06/12 04:45:45;;;;;;;7.28;4.25;;;;;;;-146.27;43.84;80693.13;5029486;28;20503;-68
2023/06/12 04:48:11;;;;;;;8.25;4.43;;;;;;;-146.27;42.51;80675.06;5028297;28;20147;-68
2023/06/12 04:50:36;;;;;;;7.22;3.88;;;;;;;-146.27;42.81;80657.00;5021615;28;20071;-68
2023/06/12 04:53:02;;;;;;;8.52;4.07;;;;;;;-146.27;41.59;80616.84;5030306;28;20060;-70
2023/06/12 04:55:28;;;;;;;14.10;4.68;;;;;;;-146.27;41.96;80588.72;5025533;28;20595;-69
2023/06/12 04:57:54;;;;;;;6.13;4.18;;;;;;;-146.27;41.17;80636.91;5019232;28;20021;-69
2023/06/12 05:00:20;;;;;;;12.80;4.88;;;;;;;-146.27;41.76;80596.75;5021448;28;20033;-70
2023/06/12 05:02:49;;;;;;;12.18;4.20;;;;;;;-146.27;42.72;80562.63;5028782;28;20508;-70
2023/06/12 05:05:15;;;;;;;8.15;4.25;;;;;;;-146.27;42.16;80584.69;5029250;28;20029;-69
2023/06/12 05:07:46;;;;;;;5.80;4.40;;;;;;;-146.27;40.98;80564.63;5028605;28;20030;-69
2023/06/12 05:10:13;;;;;;;5.63;4.38;;;;;;;-146.27;42.04;80524.47;5025018;28;20073;-69
2023/06/12 05:12:39;;;;;;;5.05;4.35;;;;;;;-146.27;41.77;80528.47;5026853;28;20047;-68
2023/06/12 05:15:05;;;;;;;6.28;4.35;;;;;;;-146.27;41.87;80534.50;5024199;28;20025;-69
2023/06/12 05:17:31;;;;;;;9.70;4.50;;;;;;;-146.27;42.02;80506.41;5023259;28;20417;-69
2023/06/12 05:19:57;;;;;;;7.40;4.82;;;;;;;-146.27;42.00;80516.44;5020576;28;20037;-69
2023/06/12 05:22:22;;;;;;;7.38;3.90;;;;;;;-146.27;41.74;80496.34;5024421;28;20029;-69
2023/06/12 05:24:48;;;;;;;9.02;4.57;;;;;;;-146.27;41.97;80438.13;5027087;28;20032;-68
2023/06/12 05:27:13;;;;;;;9.18;4.25;;;;;;;-146.27;41.98;80438.13;5015535;28;20026;-69
2023/06/12 05:29:38;;;;;;;7.25;4.53;;;;;;;-146.27;42.18;80472.25;5031307;28;20091;-69
2023/06/12 05:32:05;;;;;;;8.13;4.57;;;;;;;-146.27;41.94;80436.13;5026354;28;20034;-69
2023/06/12 05:34:30;;;;;;;4.63;3.83;;;;;;;-146.27;42.16;80420.06;5027796;28;20481;-69
2023/06/12 05:36:56;;;;;;;12.90;4.65;;;;;;;-146.27;41.32;80452.19;5024079;28;20079;-70
2023/06/12 05:39:21;;;;;;;7.97;4.25;;;;;;;-146.27;42.16;80444.16;5024594;28;20029;-72
2023/06/12 05:41:46;;;;;;;8.35;4.82;;;;;;;-146.27;42.01;80399.97;5019856;28;20021;-70
2023/06/12 05:44:12;;;;;;;8.50;4.55;;;;;;;-146.27;41.67;80420.06;5026431;28;20516;-68
2023/06/12 05:46:37;;;;;;;8.10;4.55;;;;;;;-146.27;42.10;80412.03;5023278;28;20032;-69
2023/06/12 05:49:03;;;;;;;6.40;4.35;;;;;;;-146.27;41.35;80383.91;5028200;28;20026;-69
2023/06/12 05:51:28;;;;;;;5.60;4.13;;;;;;;-146.27;41.70;80428.09;5024756;28;20140;-69
2023/06/12 05:53:54;;;;;;;5.22;4.00;;;;;;;-146.27;41.73;80323.69;5024594;28;20046;-69
2023/06/12 05:56:20;;;;;;;5.13;4.13;;;;;;;-146.27;42.24;80303.59;5025563;28;20101;-68
2023/06/12 05:58:45;;;;;;;6.40;4.60;;;;;;;-146.27;41.37;80317.66;5025172;28;20548;-69
2023/06/12 06:01:16;;;;;;;8.90;4.15;;;;;;;-146.27;41.96;80285.53;5021495;28;20028;-69
2023/06/12 06:03:45;;;;;;;6.88;4.43;;;;;;;-146.27;41.64;80287.53;5024978;28;20036;-69
2023/06/12 06:06:15;;;;;;;8.52;4.13;;;;;;;-146.27;41.54;80255.41;5025289;28;20025;-69
2023/06/12 06:08:41;;;;;;;9.23;4.28;;;;;;;-146.27;41.98;80253.41;5026082;28;20144;-69
2023/06/12 06:11:07;;;;;;;5.22;4.10;;;;;;;-146.27;41.25;80227.31;5024830;28;20052;-69
2023/06/12 06:13:32;;;;;;;9.98;4.15;;;;;;;-146.27;41.93;80227.31;5019316;28;20033;-68
2023/06/12 06:15:58;;;;;;;6.85;3.92;;;;;;;-146.27;42.74;80149.00;5023947;28;20033;-69
2023/06/12 06:18:23;;;;;;;7.22;4.40;;;;;;;-146.27;42.67;80179.13;5030070;28;20141;-68
2023/06/12 06:20:49;;;;;;;7.35;4.78;;;;;;;-146.27;42.24;80175.13;5029020;28;20052;-69
2023/06/12 06:23:14;;;;;;;7.60;4.50;;;;;;;-146.27;43.43;80102.84;5019182;28;20092;-68
2023/06/12 06:25:40;;;;;;;6.70;4.63;;;;;;;-146.27;42.86;80098.81;5023515;28;20447;-69
2023/06/12 06:28:05;;;;;;;10.60;4.50;;;;;;;-146.27;41.84;80128.94;5029770;28;20029;-70
2023/06/12 06:30:31;;;;;;;7.30;4.50;;;;;;;-146.27;41.18;80054.66;5033396;28;20355;-69
2023/06/12 06:32:56;;;;;;;13.35;5.03;;;;;;;-146.27;42.23;80030.56;5028834;28;20482;-69
2023/06/12 06:35:22;;;;;;;9.27;4.20;;;;;;;-146.27;43.09;80046.63;5019899;28;20397;-67
2023/06/12 06:37:47;;;;;;;8.98;4.90;;;;;;;-146.27;42.97;80020.53;5028840;28;20434;-68
2023/06/12 06:40:14;;;;;;;6.07;4.43;;;;;;;-146.27;44.02;80038.59;5026190;28;20485;-67
2023/06/12 06:42:41;;;;;;;8.90;4.05;;;;;;;-146.27;42.66;79990.41;5013541;28;20056;-68
2023/06/12 06:45:07;;;;;;;7.50;4.70;;;;;;;-146.27;42.13;79966.31;5020696;28;20373;-69
2023/06/12 06:47:33;;;;;;;6.13;4.45;;;;;;;-146.27;41.89;79946.25;5021874;28;20021;-70
2023/06/12 06:49:59;;;;;;;8.43;4.43;;;;;;;-146.27;40.62;79926.16;5018548;28;20049;-69
2023/06/12 06:52:25;;;;;;;8.90;4.85;;;;;;;-146.27;41.29;79890.03;5018403;28;20120;-70
2023/06/12 06:54:51;;;;;;;9.57;4.30;;;;;;;-146.27;40.74;79958.28;5025255;28;20033;-69
2023/06/12 06:57:17;;;;;;;7.30;4.32;;;;;;;-146.27;40.82;79869.94;5028437;28;20514;-69
2023/06/12 06:59:42;;;;;;;10.40;4.45;;;;;;;-146.27;39.00;79837.84;5023318;28;20067;-69
2023/06/12 07:02:08;;;;;;;6.25;4.63;;;;;;;-146.27;39.19;79801.69;5025767;28;20034;-69
2023/06/12 07:04:33;;;;;;;6.82;4.22;;;;;;;-146.27;39.39;79749.50;5016499;28;20041;-69
2023/06/12 07:06:58;;;;;;;9.07;4.55;;;;;;;-146.27;39.66;79753.53;5025180;28;20087;-69
2023/06/12 07:09:27;;;;;;;5.55;4.05;;;;;;;-146.27;39.65;79721.41;5009565;28;20108;-68
2023/06/12 07:11:52;;;;;;;7.72;4.28;;;;;;;-146.27;38.47;79661.16;5017114;28;20034;-67
2023/06/12 07:14:17;;;;;;;9.18;4.38;;;;;;;-146.27;38.47;79613.00;5019297;28;20083;-69
2023/06/12 07:16:43;;;;;;;6.00;4.32;;;;;;;-146.27;37.79;79534.72;5027698;28;20505;-70
2023/06/12 07:19:09;;;;;;;12.60;4.22;;;;;;;-146.27;38.59;79536.72;5026882;28;20037;-66
2023/06/12 07:21:36;;;;;;;6.40;4.38;;;;;;;-146.27;39.78;79496.56;5024600;28;20126;-66
2023/06/12 07:24:02;;;;;;;7.53;4.07;;;;;;;-146.27;38.17;79480.50;5024090;28;20041;-67
2023/06/12 07:26:27;;;;;;;9.77;4.47;;;;;;;-146.27;37.56;79446.38;5021872;28;20122;-68
2023/06/12 07:28:53;;;;;;;7.00;4.07;;;;;;;-146.27;38.15;79382.16;5025066;28;20036;-67
2023/06/12 07:31:19;;;;;;;6.40;4.50;;;;;;;-146.27;38.28;79329.97;5023266;28;20022;-67
2023/06/12 07:33:44;;;;;;;7.15;4.32;;;;;;;-146.27;37.45;79329.97;5027187;28;20045;-67
2023/06/12 07:36:10;;;;;;;6.63;3.97;;;;;;;-146.27;37.39;79315.91;5019392;28;20338;-67
2023/06/12 07:38:36;;;;;;;6.82;3.97;;;;;;;-146.27;38.40;79279.78;5035871;28;20478;-67
2023/06/12 07:41:01;;;;;;;13.75;4.20;;;;;;;-146.27;38.09;79219.56;5027492;28;20260;-68
2023/06/12 07:43:27;;;;;;;6.40;4.45;;;;;;;-146.27;37.94;79207.50;5028464;28;20025;-67
2023/06/12 07:45:52;;;;;;;13.20;4.32;;;;;;;-146.27;38.56;79199.50;5019066;28;20032;-67
2023/06/12 07:48:17;;;;;;;5.63;4.60;;;;;;;-146.27;37.51;79105.16;5026936;28;20033;-66
2023/06/12 07:50:43;;;;;;;5.88;4.15;;;;;;;-146.27;37.25;79079.06;5027963;28;20025;-66
2023/06/12 07:53:09;;;;;;;8.00;4.60;;;;;;;-146.27;36.73;79069.03;5028321;28;20029;-66
2023/06/12 07:55:35;;;;;;;6.63;4.32;;;;;;;-146.27;37.83;79040.91;5031899;28;20429;-67
2023/06/12 07:58:00;;;;;;;5.57;4.60;;;;;;;-146.27;36.12;78974.69;5030931;28;20055;-67
2023/06/12 08:00:26;;;;;;;5.93;4.20;;;;;;;-146.27;35.39;78970.69;5024333;28;20053;-67
2023/06/12 08:02:56;;;;;;;7.47;4.20;;;;;;;-146.27;36.01;78894.41;5032696;28;20025;-68
2023/06/12 08:05:22;;;;;;;7.85;3.83;;;;;;;-146.27;36.62;78860.28;5030628;28;20021;-70
2023/06/12 08:07:47;;;;;;;9.60;4.05;;;;;;;-146.27;36.96;78806.09;5032482;28;20029;-69
2023/06/12 08:10:12;;;;;;;7.95;4.15;;;;;;;-146.27;36.42;78814.13;5031512;28;20052;-70
2023/06/12 08:12:38;;;;;;;9.27;4.20;;;;;;;-146.27;35.88;78818.13;5029793;28;20057;-70
2023/06/12 08:15:04;;;;;;;5.07;4.28;;;;;;;-146.27;34.82;78745.88;5028000;28;20091;-71
2023/06/12 08:17:29;;;;;;;11.70;3.95;;;;;;;-146.27;34.07;78723.81;5031720;28;20029;-71
2023/06/12 08:19:55;;;;;;;7.68;4.53;;;;;;;-146.27;34.71;78693.72;5027233;28;20510;-71
2023/06/12 08:22:20;;;;;;;5.90;4.35;;;;;;;-146.27;34.58;78645.53;5031240;28;20112;-71
2023/06/12 08:24:46;;;;;;;6.82;3.92;;;;;;;-146.27;34.85;78593.34;5031415;28;20556;-71
2023/06/12 08:27:11;;;;;;;5.70;4.05;;;;;;;-146.27;34.61;78541.19;5032112;28;20029;-71
2023/06/12 08:29:39;;;;;;;6.85;4.30;;;;;;;-146.27;33.06;78468.94;5032325;28;20021;-71
2023/06/12 08:32:06;;;;;;;6.07;4.30;;;;;;;-146.27;33.02;78460.91;5022827;28;20041;-71
2023/06/12 08:34:32;;;;;;;5.65;4.10;;;;;;;-146.27;33.19;78440.84;5028576;28;20389;-71
2023/06/12 08:36:57;;;;;;;6.57;3.95;;;;;;;-146.27;33.06;78370.59;5031172;28;20068;-71
2023/06/12 08:39:22;;;;;;;6.82;4.32;;;;;;;-146.27;33.25;78362.56;5031930;28;20385;-72
2023/06/12 08:42:14;;;;;;;11.25;4.25;;;;;;;-146.27;33.12;78216.06;5031116;28;20059;-71
2023/06/12 08:44:43;;;;;;;8.48;4.28;;;;;;;-146.27;32.91;78216.06;5031794;28;20037;-71
2023/06/12 08:47:09;;;;;;;5.28;3.90;;;;;;;-146.27;32.32;78103.69;5031920;28;20029;-72
2023/06/12 08:49:34;;;;;;;4.53;3.47;;;;;;;-146.27;31.21;78107.72;5031341;28;20390;-70
2023/06/12 08:52:02;;;;;;;7.03;3.70;;;;;;;-146.27;31.71;78055.53;5031176;28;20037;-71
2023/06/12 08:54:29;;;;;;;6.60;4.13;;;;;;;-146.27;31.33;78009.38;5029898;28;20606;-70
2023/06/12 08:56:56;;;;;;;5.68;4.07;;;;;;;-146.27;32.00;78011.41;5029935;28;20079;-72
2023/06/12 08:59:22;;;;;;;6.95;4.20;;;;;;;-146.27;31.34;77893.00;5026455;28;20041;-72
2023/06/12 09:01:53;;;;;;;5.63;4.03;;;;;;;-146.27;31.80;77862.91;5031482;28;20397;-72
2023/06/12 09:04:44;;;;;;;6.82;4.18;;;;;;;-146.27;31.46;77784.66;5030499;28;20022;-73
2023/06/12 09:07:11;;;;;;;6.63;4.15;;;;;;;-146.27;30.93;77798.69;5027380;28;20026;-72
2023/06/12 09:09:41;;;;;;;5.72;3.67;;;;;;;-146.27;30.49;77700.38;5027994;28;20108;-72
2023/06/12 09:12:12;;;;;;;10.70;3.55;;;;;;;-146.27;31.18;77670.28;5010209;28;20034;-71
2023/06/12 09:14:39;;;;;;;5.85;3.92;;;;;;;-146.27;31.06;77586.00;5020830;28;20079;-72
2023/06/12 09:17:06;;;;;;;5.25;4.03;;;;;;;-146.27;30.73;77451.59;5027621;28;20032;-72
2023/06/12 09:19:43;;;;;;;6.88;3.80;;;;;;;-146.27;30.53;77369.34;5027451;28;20037;-71
2023/06/12 09:22:11;;;;;;;6.13;3.47;;;;;;;-146.27;29.69;77333.22;5021967;28;20486;-72
2023/06/12 09:24:36;;;;;;;5.30;3.47;;;;;;;-146.27;29.44;77269.03;5027196;28;20053;-72
2023/06/12 09:27:03;;;;;;;7.28;3.85;;;;;;;-146.27;29.38;77196.78;5022347;28;20060;-72
2023/06/12 09:29:30;;;;;;;6.43;3.85;;;;;;;-146.27;28.39;77146.63;5029221;28;20045;-71
2023/06/12 09:31:58;;;;;;;5.93;3.88;;;;;;;-146.27;28.69;77092.47;5028122;28;20027;-72
2023/06/12 09:34:24;;;;;;;7.07;3.65;;;;;;;-146.27;28.34;77112.53;5026980;28;20060;-72
2023/06/12 09:36:49;;;;;;;8.02;3.83;;;;;;;-146.27;27.99;77144.63;5019136;28;20056;-72
2023/06/12 09:39:23;;;;;;;9.18;3.17;;;;;;;-146.27;27.72;76992.16;5021404;28;20025;-71
2023/06/12 09:41:49;;;;;;;5.95;3.40;;;;;;;-146.27;27.96;76936.00;5023634;28;20508;-72
2023/06/12 09:44:20;;;;;;;4.85;3.25;;;;;;;-146.27;27.20;76851.75;5028821;28;20029;-73
2023/06/12 09:46:46;;;;;;;7.70;3.00;;;;;;;-146.27;28.01;76755.44;5028977;28;20029;-72
2023/06/12 09:49:13;;;;;;;6.25;3.50;;;;;;;-146.27;27.14;76747.44;5014431;28;20030;-73
2023/06/12 09:51:41;;;;;;;6.60;3.60;;;;;;;-146.27;26.62;76767.50;5015302;28;20031;-72
2023/06/12 09:54:10;;;;;;;8.02;3.55;;;;;;;-146.27;26.55;76663.19;5022708;28;20029;-73
2023/06/12 09:56:37;;;;;;;6.65;3.70;;;;;;;-146.27;27.13;76550.84;5024033;28;20025;-73
2023/06/12 09:59:04;;;;;;;10.90;3.65;;;;;;;-146.27;26.47;76486.66;5026457;28;20390;-72
2023/06/12 10:01:32;;;;;;;6.30;4.00;;;;;;;-146.27;26.87;76456.56;5023617;28;20034;-72
2023/06/12 10:03:59;;;;;;;7.35;4.53;;;;;;;-146.27;26.43;76406.44;5023758;28;20112;-73
2023/06/12 10:06:26;;;;;;;8.13;3.38;;;;;;;-146.27;26.78;76370.31;5019657;28;20032;-73
2023/06/12 10:08:54;;;;;;;6.00;3.78;;;;;;;-146.27;27.99;76245.97;5025270;28;20120;-72
2023/06/12 10:11:21;;;;;;;6.30;3.53;;;;;;;-146.27;28.27;76133.66;5026591;28;20585;-72
2023/06/12 10:13:47;;;;;;;4.68;3.70;;;;;;;-146.27;28.15;76155.72;5028684;28;20030;-73
2023/06/12 10:16:14;;;;;;;10.88;3.40;;;;;;;-146.27;27.89;76067.47;5029289;28;20205;-73
2023/06/12 10:18:42;;;;;;;6.85;4.05;;;;;;;-146.27;27.99;75919.03;5029330;28;20524;-73
2023/06/12 10:21:07;;;;;;;9.15;3.80;;;;;;;-146.27;28.40;75901.00;5028310;28;20108;-73
2023/06/12 10:23:33;;;;;;;10.15;4.28;;;;;;;-146.27;28.24;75848.84;5028975;28;20520;-73
2023/06/12 10:25:59;;;;;;;6.50;3.85;;;;;;;-146.27;28.01;75872.91;5029555;28;20112;-73
2023/06/12 10:28:25;;;;;;;8.00;3.72;;;;;;;-146.27;27.49;75752.59;5029602;28;20033;-73
2023/06/12 10:31:11;;;;;;;10.70;3.42;;;;;;;-146.27;28.12;75792.69;5027176;28;20026;-73
2023/06/12 10:33:37;;;;;;;6.95;3.80;;;;;;;-146.27;26.33;75852.84;5015264;28;20521;-72
2023/06/12 10:36:11;;;;;;;13.68;3.78;;;;;;;-146.27;28.40;75616.22;5029014;28;20370;-72
2023/06/12 10:39:06;;;;;;;8.40;3.33;;;;;;;-146.27;26.71;75439.75;5026696;28;20057;-74
2023/06/12 10:41:32;;;;;;;5.35;3.13;;;;;;;-146.27;25.96;75538.00;5022830;28;20033;-72
2023/06/12 10:43:58;;;;;;;4.90;3.00;;;;;;;-146.27;26.36;75427.72;5030923;28;20048;-74
2023/06/12 10:46:23;;;;;;;5.18;3.53;;;;;;;-146.27;26.34;75387.59;5042117;28;20094;-74
2023/06/12 10:48:48;;;;;;;6.03;3.83;;;;;;;-146.27;26.53;75259.28;5031759;28;20806;-73
2023/06/12 10:51:14;;;;;;;6.43;3.90;;;;;;;-146.27;26.50;75227.19;5029341;28;20374;-73
2023/06/12 10:53:44;;;;;;;4.82;3.60;;;;;;;-146.27;26.23;75171.03;5030846;28;20033;-73
2023/06/12 10:56:09;;;;;;;6.88;3.58;;;;;;;-146.27;25.96;75090.84;5034093;28;20490;-72
2023/06/12 10:58:42;;;;;;;6.70;3.55;;;;;;;-146.27;26.03;75080.81;5022253;28;20025;-73
2023/06/12 11:01:14;;;;;;;6.38;3.70;;;;;;;-146.27;26.43;74976.53;5030997;28;20028;-73
2023/06/12 11:03:44;;;;;;;5.30;3.28;;;;;;;-146.27;27.03;74880.28;5024031;28;20029;-73
2023/06/12 11:06:15;;;;;;;5.05;3.50;;;;;;;-146.27;25.72;74798.09;5026568;28;20028;-74
2023/06/12 11:08:41;;;;;;;9.73;3.58;;;;;;;-146.27;26.02;74834.19;5033356;28;20026;-71
2023/06/12 11:11:08;;;;;;;5.95;3.72;;;;;;;-146.27;26.70;74741.94;5029080;28;20076;-72
2023/06/12 11:13:35;;;;;;;6.38;3.22;;;;;;;-146.27;27.02;74655.75;5026929;28;20029;-73
2023/06/12 11:16:01;;;;;;;9.50;4.10;;;;;;;-146.27;25.56;74551.47;5028118;28;20113;-71